createdAt,value
2023-07-02T00:01:35.430Z,6.43
2023-07-02T00:04:03.903Z,5.40
2023-07-02T00:06:54.097Z,10.55
2023-07-02T00:09:31.472Z,4.35
2023-07-02T00:12:02.449Z,5.13
2023-07-02T00:15:01.153Z,5.15
2023-07-02T00:17:52.706Z,6.25
2023-07-02T00:20:27.016Z,7.13
2023-07-02T00:22:59.662Z,6.82
2023-07-02T00:26:02.601Z,6.85
2023-07-02T00:46:41.215Z,7.30
2023-07-02T00:49:13.058Z,6.40
2023-07-02T00:51:44.543Z,7.30
2023-07-02T00:58:07.484Z,8.73
2023-07-02T01:04:48.958Z,9.73
2023-07-02T01:11:50.833Z,7.95
2023-07-02T01:14:19.409Z,7.38
2023-07-02T01:16:59.716Z,7.20
2023-07-02T01:19:44.345Z,10.93
2023-07-02T01:22:37.309Z,10.07
2023-07-02T01:25:37.122Z,6.10
2023-07-02T01:28:06.474Z,6.68
2023-07-02T01:30:34.109Z,10.85
2023-07-02T01:33:05.714Z,8.27
2023-07-02T01:35:35.174Z,7.20
2023-07-02T01:38:03.053Z,9.07
2023-07-02T01:40:31.975Z,9.73
2023-07-02T01:43:07.575Z,7.65
2023-07-02T01:45:35.288Z,7.93
2023-07-02T01:48:02.944Z,9.85
2023-07-02T01:50:31.918Z,9.25
2023-07-02T01:53:08.569Z,8.73
2023-07-02T01:55:36.303Z,7.90
2023-07-02T01:58:04.156Z,10.95
2023-07-02T02:00:34.576Z,8.73
2023-07-02T02:03:09.115Z,8.10
2023-07-02T02:05:37.430Z,11.27
2023-07-02T02:08:06.556Z,9.38
2023-07-02T02:11:11.158Z,8.88
2023-07-02T02:13:42.097Z,7.68
2023-07-02T02:16:09.910Z,8.10
2023-07-02T02:25:08.978Z,10.93
2023-07-02T02:27:39.391Z,10.55
2023-07-02T02:30:07.682Z,8.95
2023-07-02T02:32:35.355Z,10.85
2023-07-02T02:35:15.515Z,14.05
2023-07-02T02:37:45.000Z,8.32
2023-07-02T02:40:15.208Z,10.65
2023-07-02T02:42:57.875Z,8.60
2023-07-02T02:45:38.479Z,8.65
2023-07-02T02:48:50.753Z,11.60
2023-07-02T02:51:18.677Z,9.00
2023-07-02T02:53:49.420Z,7.20
2023-07-02T02:57:02.229Z,8.93
2023-07-02T03:03:04.116Z,9.02
2023-07-02T03:05:32.014Z,10.18
2023-07-02T03:07:59.716Z,11.48
2023-07-02T03:10:27.260Z,12.57
2023-07-02T03:12:54.935Z,10.88
2023-07-02T03:15:22.531Z,8.90
2023-07-02T03:17:50.518Z,9.90
2023-07-02T03:20:19.565Z,11.10
2023-07-02T03:22:47.218Z,9.90
2023-07-02T03:25:14.828Z,6.70
2023-07-02T03:27:42.418Z,7.78
2023-07-02T03:30:10.549Z,8.68
2023-07-02T03:32:38.544Z,10.25
2023-07-02T03:35:06.516Z,7.72
2023-07-02T03:37:35.621Z,8.27
2023-07-02T03:40:03.407Z,7.88
2023-07-02T03:42:31.222Z,11.73
2023-07-02T03:44:59.025Z,10.18
2023-07-02T03:47:26.673Z,12.98
2023-07-02T03:49:55.346Z,12.57
2023-07-02T03:52:25.105Z,12.63
2023-07-02T03:54:54.102Z,13.82
2023-07-02T03:57:21.792Z,13.70
2023-07-02T03:59:49.618Z,12.30
2023-07-02T04:02:17.311Z,15.93
2023-07-02T04:04:45.052Z,11.38
2023-07-02T04:07:13.684Z,12.02
2023-07-02T04:09:41.288Z,13.00
2023-07-02T04:12:11.159Z,13.45
2023-07-02T04:14:38.745Z,11.95
2023-07-02T04:17:06.787Z,12.00
2023-07-02T04:19:34.474Z,10.07
2023-07-02T04:22:02.081Z,14.10
2023-07-02T04:24:29.840Z,13.07
2023-07-02T04:27:30.984Z,16.45
2023-07-02T04:29:46.765Z,10.80
2023-07-02T04:32:14.373Z,12.77
2023-07-02T04:34:42.586Z,9.57
2023-07-02T04:37:11.502Z,11.80
2023-07-02T04:39:39.134Z,18.25
2023-07-02T04:42:07.030Z,13.95
2023-07-02T04:44:34.653Z,14.95
2023-07-02T04:47:04.351Z,15.55
2023-07-02T04:49:31.902Z,15.55
2023-07-02T04:51:59.490Z,11.23
2023-07-02T04:54:27.044Z,16.05
2023-07-02T04:56:54.634Z,13.45
2023-07-02T04:59:22.756Z,17.35
2023-07-02T05:01:50.562Z,12.98
2023-07-02T05:06:47.137Z,12.85
2023-07-02T05:09:14.699Z,15.02
2023-07-02T05:11:42.275Z,13.95
2023-07-02T05:14:09.868Z,14.90
2023-07-02T05:16:37.676Z,14.57
2023-07-02T05:19:05.671Z,14.43
2023-07-02T05:21:34.604Z,14.20
2023-07-02T05:24:02.172Z,16.33
2023-07-02T05:26:29.760Z,15.73
2023-07-02T05:28:57.311Z,17.60
2023-07-02T05:31:24.928Z,12.52
2023-07-02T05:33:52.460Z,14.02
2023-07-02T05:36:20.004Z,14.65
2023-07-02T05:38:49.005Z,16.95
2023-07-02T05:41:20.064Z,11.07
2023-07-02T05:43:47.718Z,15.90
2023-07-02T05:46:16.518Z,10.57
2023-07-02T05:48:44.530Z,11.52
2023-07-02T05:51:12.141Z,11.52
2023-07-02T05:53:39.968Z,8.40
2023-07-02T05:56:09.067Z,13.32
2023-07-02T05:58:47.187Z,11.68
2023-07-02T06:01:16.449Z,16.98
2023-07-02T06:03:46.217Z,12.40
2023-07-02T06:06:14.024Z,7.65
2023-07-02T06:08:41.678Z,8.05
2023-07-02T06:11:11.434Z,7.15
2023-07-02T06:13:39.043Z,7.75
2023-07-02T06:16:06.840Z,9.73
2023-07-02T06:18:34.506Z,11.13
2023-07-02T06:21:02.178Z,7.53
2023-07-02T06:23:29.730Z,10.35
2023-07-02T06:26:00.322Z,7.80
2023-07-02T06:28:29.618Z,10.65
2023-07-02T06:30:57.225Z,9.55
2023-07-02T06:33:24.912Z,10.65
2023-07-02T06:35:52.563Z,9.85
2023-07-02T06:38:20.257Z,12.05
2023-07-02T06:40:48.001Z,8.32
2023-07-02T06:43:15.919Z,7.55
2023-07-02T06:45:45.121Z,10.30
2023-07-02T06:48:12.906Z,11.45
2023-07-02T06:50:40.859Z,10.98
2023-07-02T06:53:08.747Z,14.80
2023-07-02T06:55:36.684Z,14.70
2023-07-02T06:58:04.364Z,14.40
2023-07-02T07:00:33.226Z,13.32
2023-07-02T07:03:02.148Z,10.93
2023-07-02T07:05:30.174Z,11.15
2023-07-02T07:07:57.726Z,13.25
2023-07-02T07:10:25.402Z,15.45
2023-07-02T07:12:52.987Z,16.08
2023-07-02T07:15:20.583Z,15.20
2023-07-02T07:17:48.581Z,12.48
2023-07-02T07:20:17.712Z,17.00
2023-07-02T07:22:45.305Z,14.75
2023-07-02T07:25:16.517Z,17.60
2023-07-02T07:27:45.923Z,13.13
2023-07-02T07:30:15.411Z,15.55
2023-07-02T07:32:43.098Z,13.73
2023-07-02T07:35:10.933Z,14.77
2023-07-02T07:37:40.308Z,13.68
2023-07-02T07:40:08.950Z,16.02
2023-07-02T07:42:36.768Z,17.35
2023-07-02T07:45:04.881Z,14.93
2023-07-02T07:47:32.542Z,14.60
2023-07-02T07:50:07.752Z,12.63
2023-07-02T07:52:35.514Z,14.95
2023-07-02T07:55:04.593Z,13.95
2023-07-02T07:57:32.127Z,13.50
2023-07-02T07:59:59.785Z,17.08
2023-07-02T08:02:30.020Z,16.90
2023-07-02T08:04:57.734Z,17.30
2023-07-02T08:07:25.316Z,16.67
2023-07-02T08:09:52.939Z,19.33
2023-07-02T08:12:21.932Z,16.42
2023-07-02T08:14:49.592Z,18.70
2023-07-02T08:17:17.215Z,19.67
2023-07-02T08:19:44.787Z,19.50
2023-07-02T08:22:12.366Z,22.33
2023-07-02T08:24:41.373Z,19.75
2023-07-02T08:27:09.641Z,21.10
2023-07-02T08:29:38.614Z,15.02
2023-07-02T08:32:06.396Z,16.13
2023-07-02T08:34:33.951Z,21.05
2023-07-02T08:37:01.528Z,21.00
2023-07-02T08:39:29.119Z,18.10
2023-07-02T08:41:59.598Z,17.58
2023-07-02T08:44:28.194Z,18.13
2023-07-02T08:46:58.132Z,19.95
2023-07-02T08:49:25.864Z,22.02
2023-07-02T08:51:53.455Z,18.10
2023-07-02T08:54:21.115Z,17.13
2023-07-02T08:56:49.136Z,23.13
2023-07-02T08:59:16.760Z,17.95
2023-07-02T09:01:47.536Z,20.95
2023-07-02T09:04:20.587Z,21.08
2023-07-02T09:06:48.623Z,17.40
2023-07-02T09:09:16.285Z,18.33
2023-07-02T09:11:51.014Z,17.02
2023-07-02T09:14:36.376Z,18.92
2023-07-02T09:17:05.505Z,15.13
2023-07-02T09:19:34.713Z,17.83
2023-07-02T09:22:02.562Z,16.88
2023-07-02T09:24:31.158Z,18.10
2023-07-02T09:26:59.819Z,15.98
2023-07-02T09:29:29.485Z,15.50
2023-07-02T09:34:30.048Z,15.35
2023-07-02T09:36:59.669Z,15.30
2023-07-02T09:39:28.245Z,19.02
2023-07-02T09:41:56.603Z,15.95
2023-07-02T09:44:24.421Z,14.98
2023-07-02T09:46:55.916Z,14.90
2023-07-02T09:49:24.608Z,17.23
2023-07-02T09:51:52.522Z,17.77
2023-07-02T09:54:22.137Z,16.27
2023-07-02T09:56:50.019Z,15.82
2023-07-02T09:59:17.641Z,16.65
2023-07-02T10:01:45.237Z,15.25
2023-07-02T10:04:13.930Z,13.82
2023-07-02T10:06:48.436Z,17.95
2023-07-02T10:09:16.230Z,19.45
2023-07-02T10:11:45.499Z,17.60
2023-07-02T10:14:13.291Z,17.25
2023-07-02T10:16:53.868Z,17.30
2023-07-02T10:19:22.613Z,17.30
2023-07-02T10:22:03.149Z,15.15
2023-07-02T10:24:30.743Z,16.20
2023-07-02T10:27:00.218Z,15.27
2023-07-02T10:29:29.552Z,15.98
2023-07-02T10:31:58.188Z,18.20
2023-07-02T10:34:35.362Z,14.35
2023-07-02T10:37:03.642Z,15.05
2023-07-02T10:39:32.280Z,14.73
2023-07-02T10:42:08.293Z,15.45
2023-07-02T10:44:36.477Z,17.55
2023-07-02T10:47:05.905Z,17.63
2023-07-02T10:49:34.472Z,19.42
2023-07-02T10:52:02.434Z,18.02
2023-07-02T10:54:40.921Z,21.05
2023-07-02T10:57:10.120Z,17.80
2023-07-02T10:59:37.851Z,15.80
2023-07-02T11:02:05.708Z,19.23
2023-07-02T11:04:33.555Z,13.52
2023-07-02T11:07:01.444Z,16.45
2023-07-02T11:09:29.039Z,16.05
2023-07-02T11:11:57.630Z,17.17
2023-07-02T11:14:36.612Z,15.00
2023-07-02T11:17:06.393Z,17.60
2023-07-02T11:19:34.298Z,16.85
2023-07-02T11:22:01.904Z,16.25
2023-07-02T11:24:30.747Z,19.33
2023-07-02T11:26:58.611Z,13.23
2023-07-02T11:29:26.230Z,17.20
2023-07-02T11:31:55.250Z,16.60
2023-07-02T11:34:25.458Z,17.38
2023-07-02T11:36:55.202Z,16.75
2023-07-02T11:39:22.895Z,17.58
2023-07-02T11:41:51.492Z,17.52
2023-07-02T11:44:19.460Z,19.20
2023-07-02T11:46:48.242Z,20.50
2023-07-02T11:49:17.392Z,19.73
2023-07-02T11:51:49.334Z,17.73
2023-07-02T11:54:17.507Z,15.73
2023-07-02T11:56:45.213Z,15.85
2023-07-02T11:59:12.844Z,19.52
2023-07-02T12:01:40.626Z,18.92
2023-07-02T12:04:08.944Z,17.38
2023-07-02T12:06:38.074Z,16.75
2023-07-02T12:09:05.620Z,21.67
2023-07-02T12:11:33.182Z,18.52
2023-07-02T12:14:00.950Z,19.33
2023-07-02T12:16:28.683Z,15.05
2023-07-02T12:18:56.298Z,17.50
2023-07-02T12:21:23.892Z,16.85
2023-07-02T12:23:52.843Z,16.17
2023-07-02T12:26:20.520Z,14.35
2023-07-02T12:28:48.147Z,16.33
2023-07-02T12:31:15.849Z,14.15
2023-07-02T12:33:43.480Z,17.27
2023-07-02T12:36:11.294Z,18.77
2023-07-02T12:38:38.872Z,17.73
2023-07-02T12:41:07.855Z,16.52
2023-07-02T12:43:35.596Z,19.85
2023-07-02T12:46:03.571Z,17.40
2023-07-02T12:48:31.231Z,16.20
2023-07-02T12:50:59.274Z,16.05
2023-07-02T12:53:27.396Z,16.13
2023-07-02T12:55:55.820Z,18.00
2023-07-02T12:58:24.757Z,17.92
2023-07-02T13:00:52.406Z,18.10
2023-07-02T13:03:21.681Z,18.40
2023-07-02T13:05:50.023Z,16.15
2023-07-02T13:08:17.814Z,15.30
2023-07-02T13:10:45.382Z,18.73
2023-07-02T13:13:22.719Z,19.00
2023-07-02T13:15:52.948Z,18.08
2023-07-02T13:18:20.752Z,16.00
2023-07-02T13:20:48.576Z,19.10
2023-07-02T13:23:16.159Z,19.70
2023-07-02T13:25:43.786Z,16.20
2023-07-02T13:28:11.449Z,17.45
2023-07-02T13:30:39.030Z,19.58
2023-07-02T13:33:08.219Z,14.30
2023-07-02T13:35:38.476Z,21.27
2023-07-02T13:38:06.499Z,18.95
2023-07-02T13:41:04.972Z,20.05
2023-07-02T13:43:32.728Z,17.02
2023-07-02T13:46:00.531Z,19.70
2023-07-02T13:48:31.290Z,16.27
2023-07-02T13:50:59.079Z,17.73
2023-07-02T13:53:27.062Z,19.17
2023-07-02T13:55:54.670Z,21.63
2023-07-02T13:58:29.922Z,20.15
2023-07-02T14:00:59.487Z,18.52
2023-07-02T14:03:27.236Z,16.77
2023-07-02T14:05:54.986Z,17.75
2023-07-02T14:08:22.567Z,15.68
2023-07-02T14:10:51.596Z,16.42
2023-07-02T14:13:21.908Z,18.70
2023-07-02T14:15:49.836Z,16.10
2023-07-02T14:18:19.199Z,19.23
2023-07-02T14:20:46.854Z,19.13
2023-07-02T14:23:14.509Z,22.50
2023-07-02T14:25:42.529Z,17.85
2023-07-02T14:28:10.296Z,20.48
2023-07-02T14:30:38.476Z,18.02
2023-07-02T14:33:06.600Z,17.33
2023-07-02T14:35:36.425Z,21.15
2023-07-02T14:38:04.225Z,16.58
2023-07-02T14:40:33.643Z,19.45
2023-07-02T14:43:01.300Z,17.00
2023-07-02T14:45:28.912Z,18.38
2023-07-02T14:48:00.948Z,21.58
2023-07-02T14:50:28.855Z,19.00
2023-07-02T14:52:57.830Z,16.35
2023-07-02T14:55:25.616Z,17.80
2023-07-02T14:57:53.266Z,18.98
2023-07-02T15:00:20.938Z,17.02
2023-07-02T15:02:48.687Z,16.80
2023-07-02T15:05:16.785Z,17.70
2023-07-02T15:07:44.538Z,16.58
2023-07-02T15:10:13.537Z,15.27
2023-07-02T15:12:41.099Z,19.83
2023-07-02T15:15:10.255Z,17.20
2023-07-02T15:17:38.034Z,15.65
2023-07-02T15:20:06.130Z,15.43
2023-07-02T15:22:33.866Z,18.52
2023-07-02T15:25:01.461Z,14.45
2023-07-02T15:27:31.426Z,15.68
2023-07-02T15:29:59.163Z,17.85
2023-07-02T15:32:26.836Z,15.68
2023-07-02T15:34:54.472Z,17.27
2023-07-02T15:37:22.077Z,15.32
2023-07-02T15:39:49.742Z,18.83
2023-07-02T15:42:17.712Z,20.45
2023-07-02T15:44:47.642Z,19.45
2023-07-02T15:47:15.235Z,17.42
2023-07-02T15:49:42.835Z,17.55
2023-07-02T15:52:10.651Z,18.40
2023-07-02T15:54:38.489Z,17.17
2023-07-02T15:57:06.574Z,16.98
2023-07-02T15:59:34.483Z,15.95
2023-07-02T16:02:03.603Z,17.55
2023-07-02T16:04:34.193Z,16.88
2023-07-02T16:07:01.974Z,17.55
2023-07-02T16:09:29.668Z,16.45
2023-07-02T16:11:57.328Z,18.35
2023-07-02T16:14:25.004Z,17.33
2023-07-02T16:16:55.615Z,20.77
2023-07-02T16:19:40.195Z,20.95
2023-07-02T16:22:07.923Z,17.25
2023-07-02T16:24:35.816Z,18.40
2023-07-02T16:27:03.954Z,18.00
2023-07-02T16:29:32.270Z,17.27
2023-07-02T16:32:01.017Z,16.15
2023-07-02T16:34:30.469Z,17.05
2023-07-02T16:36:59.748Z,18.98
2023-07-02T16:39:28.264Z,18.38
2023-07-02T16:41:56.083Z,18.55
2023-07-02T16:44:25.974Z,19.85
2023-07-02T16:46:55.028Z,18.55
2023-07-02T16:49:23.708Z,18.40
2023-07-02T16:51:51.498Z,17.77
2023-07-02T16:54:21.040Z,15.90
2023-07-02T16:56:50.206Z,20.00
2023-07-02T16:59:19.748Z,22.60
2023-07-02T17:01:48.277Z,17.15
2023-07-02T17:04:16.092Z,21.88
2023-07-02T17:06:44.519Z,19.27
2023-07-02T17:09:21.746Z,16.73
2023-07-02T17:11:52.015Z,18.00
2023-07-02T17:14:21.980Z,22.23
2023-07-02T17:16:52.338Z,20.80
2023-07-02T17:19:26.251Z,16.23
2023-07-02T17:21:54.032Z,19.05
2023-07-02T17:24:24.560Z,21.67
2023-07-02T17:26:52.470Z,19.73
2023-07-02T17:29:21.542Z,22.27
2023-07-02T17:31:49.941Z,15.85
2023-07-02T17:34:20.264Z,16.17
2023-07-02T17:39:39.753Z,16.77
2023-07-02T17:42:07.808Z,17.75
2023-07-02T17:44:37.141Z,20.10
2023-07-02T17:47:07.685Z,18.58
2023-07-02T17:49:36.972Z,16.55
2023-07-02T17:52:05.370Z,14.70
2023-07-02T17:54:35.378Z,19.25
2023-07-02T17:57:04.999Z,18.02
2023-07-02T17:59:34.728Z,18.58
2023-07-02T18:02:02.972Z,18.33
2023-07-02T18:04:30.981Z,19.83
2023-07-02T18:07:03.085Z,18.13
2023-07-02T18:09:30.835Z,17.60
2023-07-02T18:11:58.612Z,18.92
2023-07-02T18:14:28.162Z,21.50
2023-07-02T18:16:55.761Z,22.15
2023-07-02T18:19:26.543Z,22.80
2023-07-02T18:21:55.793Z,18.13
2023-07-02T18:24:23.457Z,20.67
2023-07-02T18:26:51.928Z,20.15
2023-07-02T18:29:19.823Z,19.80
2023-07-02T18:31:48.898Z,22.23
2023-07-02T18:34:16.872Z,25.35
2023-07-02T18:36:48.191Z,27.55
2023-07-02T18:39:15.862Z,22.35
2023-07-02T18:41:43.585Z,20.65
2023-07-02T18:44:11.150Z,24.30
2023-07-02T18:46:38.902Z,19.80
2023-07-02T18:49:07.938Z,24.50
2023-07-02T18:51:35.588Z,19.80
2023-07-02T18:54:03.607Z,25.15
2023-07-02T18:56:31.242Z,19.92
2023-07-02T18:58:59.744Z,20.80
2023-07-02T19:01:28.594Z,23.08
2023-07-02T19:03:58.945Z,18.10
2023-07-02T19:06:28.150Z,23.60
2023-07-02T19:08:55.849Z,22.38
2023-07-02T19:11:23.568Z,17.25
2023-07-02T19:13:51.402Z,21.55
2023-07-02T19:16:19.271Z,20.50
2023-07-02T19:18:48.637Z,18.83
2023-07-02T19:21:18.996Z,23.67
2023-07-02T19:23:50.140Z,20.08
2023-07-02T19:26:18.045Z,21.35
2023-07-02T19:28:45.517Z,18.98
2023-07-02T19:31:13.317Z,24.05
2023-07-02T19:33:41.045Z,18.40
2023-07-02T19:36:08.936Z,23.83
2023-07-02T19:38:36.586Z,21.75
2023-07-02T19:41:05.921Z,19.65
2023-07-02T19:43:34.589Z,23.02
2023-07-02T19:46:03.343Z,26.75
2023-07-02T19:48:33.788Z,26.15
2023-07-02T19:51:02.083Z,21.00
2023-07-02T19:53:30.076Z,25.52
2023-07-02T19:55:58.038Z,24.13
2023-07-02T19:58:27.116Z,21.55
2023-07-02T20:00:54.794Z,21.02
2023-07-02T20:03:23.623Z,22.00
2023-07-02T20:05:53.223Z,18.67
2023-07-02T20:08:21.044Z,24.70
2023-07-02T20:10:48.626Z,26.40
2023-07-02T20:13:16.296Z,22.02
2023-07-02T20:15:45.533Z,19.55
2023-07-02T20:18:13.259Z,26.23
2023-07-02T20:20:40.785Z,23.92
2023-07-02T20:23:08.399Z,23.17
2023-07-02T20:25:49.953Z,22.10
2023-07-02T20:28:18.751Z,20.45
2023-07-02T20:31:01.252Z,23.05
2023-07-02T20:33:29.016Z,19.83
2023-07-02T20:35:56.620Z,26.10
2023-07-02T20:38:26.449Z,24.42
2023-07-02T20:41:02.336Z,20.70
2023-07-02T20:43:30.282Z,21.80
2023-07-02T20:46:02.233Z,23.13
2023-07-02T20:48:30.011Z,26.70
2023-07-02T20:50:58.291Z,26.33
2023-07-02T20:53:26.056Z,22.83
2023-07-02T20:55:56.996Z,25.88
2023-07-02T20:58:24.762Z,18.23
2023-07-02T21:01:03.209Z,22.67
2023-07-02T21:03:31.065Z,27.40
2023-07-02T21:05:59.804Z,28.92
2023-07-02T21:08:27.685Z,24.38
2023-07-02T21:10:55.411Z,23.13
2023-07-02T21:13:23.208Z,21.85
2023-07-02T21:15:56.883Z,21.70
2023-07-02T21:18:26.766Z,20.58
2023-07-02T21:20:54.635Z,20.00
2023-07-02T21:23:22.848Z,20.80
2023-07-02T21:25:56.707Z,21.45
2023-07-02T21:28:24.537Z,20.25
2023-07-02T21:30:52.449Z,27.08
2023-07-02T21:33:20.389Z,23.48
2023-07-02T21:35:49.732Z,23.02
2023-07-02T21:38:17.796Z,28.85
2023-07-02T21:40:45.628Z,28.98
2023-07-02T21:43:13.515Z,20.98
2023-07-02T21:45:41.235Z,18.17
2023-07-02T21:48:09.033Z,23.17
2023-07-02T21:50:36.649Z,24.55
2023-07-02T21:53:05.640Z,20.70
2023-07-02T21:55:34.012Z,20.67
2023-07-02T21:58:01.608Z,25.90
2023-07-02T22:00:29.266Z,19.50
2023-07-02T22:02:57.337Z,18.08
2023-07-02T22:05:25.775Z,18.65
2023-07-02T22:07:54.383Z,17.80
2023-07-02T22:10:23.668Z,26.02
2023-07-02T22:12:51.663Z,23.60
2023-07-02T22:15:19.369Z,25.73
2023-07-02T22:17:47.190Z,20.80
2023-07-02T22:20:16.644Z,19.80
2023-07-02T22:22:45.018Z,18.85
2023-07-02T22:25:12.864Z,18.60
2023-07-02T22:27:42.114Z,22.10
2023-07-02T22:30:11.114Z,22.73
2023-07-02T22:32:39.120Z,24.20
2023-07-02T22:35:08.418Z,27.00
2023-07-02T22:37:36.503Z,19.42
2023-07-02T22:40:06.597Z,26.77
2023-07-02T22:42:34.573Z,24.00
2023-07-02T22:45:03.567Z,25.85
2023-07-02T22:47:31.318Z,22.55
2023-07-02T22:49:59.028Z,24.98
2023-07-02T22:52:26.799Z,17.15
2023-07-02T22:54:54.736Z,24.75
2023-07-02T22:57:22.669Z,19.38
2023-07-02T22:59:50.531Z,21.13
2023-07-02T23:02:19.744Z,22.58
2023-07-02T23:04:47.471Z,24.50
2023-07-02T23:07:15.143Z,19.08
2023-07-02T23:09:42.806Z,20.15
2023-07-02T23:12:10.994Z,22.88
2023-07-02T23:14:38.730Z,18.15
2023-07-02T23:17:07.987Z,21.35
2023-07-02T23:19:37.235Z,22.65
2023-07-02T23:22:04.993Z,23.60
2023-07-02T23:24:33.331Z,20.55
2023-07-02T23:27:01.244Z,24.85
2023-07-02T23:29:28.865Z,23.27
2023-07-02T23:31:56.518Z,24.45
2023-07-02T23:34:25.954Z,19.80
2023-07-02T23:36:55.013Z,27.38
2023-07-02T23:39:23.610Z,18.10
2023-07-02T23:41:51.296Z,19.65
2023-07-02T23:44:18.959Z,21.67
2023-07-02T23:46:46.912Z,19.92
2023-07-02T23:49:14.757Z,19.27
2023-07-02T23:51:42.489Z,21.63
2023-07-02T23:54:11.689Z,20.50
2023-07-02T23:56:39.723Z,19.13
2023-07-02T23:59:07.424Z,25.40
